Terminal Aerodrome Forecast
Issued by NWS San Angelo, TX

Home | Current Version | Previous Version | Text Only | Print | Product List | Glossary On
Versions: 1 2 3 4 5 6 7 8 9 10 11 12 13 14
000
FTUS44 KSJT 171800 AAA
TAFABI
TAF AMD
KABI 171839Z 1719/1818 19008KT P6SM VCSH SCT035 BKN250
     FM172000 VRB06KT P6SM VCTS BKN040CB
      TEMPO 1720/1723 3SM TSRA BKN040CB
     FM180100 13005KT P6SM BKN100=

USA.gov is the U.S. government's official web portal to all federal, state and local government web resources and services.